createdAt,value
2022-12-11T00:00:47.663Z,67.64
2022-12-11T00:03:32.411Z,67.44
2022-12-11T00:06:17.186Z,67.45
2022-12-11T00:09:01.965Z,67.40
2022-12-11T00:11:46.603Z,67.34
2022-12-11T00:14:31.407Z,67.70
2022-12-11T00:17:16.145Z,67.59
2022-12-11T00:20:00.798Z,67.60
2022-12-11T00:22:45.514Z,67.98
2022-12-11T00:25:30.338Z,68.61
2022-12-11T00:28:15.124Z,69.71
2022-12-11T00:30:59.898Z,69.12
2022-12-11T00:33:44.559Z,69.09
2022-12-11T00:36:29.428Z,70.09
2022-12-11T00:39:14.281Z,70.61
2022-12-11T00:41:59.154Z,69.81
2022-12-11T00:44:43.978Z,70.53
2022-12-11T00:47:28.671Z,70.63
2022-12-11T00:50:13.441Z,69.78
2022-12-11T00:52:58.113Z,69.59
2022-12-11T00:55:42.789Z,69.90
2022-12-11T00:58:27.487Z,69.44
2022-12-11T01:01:12.293Z,68.78
2022-12-11T01:03:57.087Z,68.44
2022-12-11T01:06:41.878Z,69.15
2022-12-11T01:09:26.639Z,69.89
2022-12-11T01:12:11.433Z,69.91
2022-12-11T01:14:56.227Z,70.01
2022-12-11T01:17:41.004Z,69.90
2022-12-11T01:20:25.816Z,68.99
2022-12-11T01:23:10.498Z,68.93
2022-12-11T01:25:55.185Z,68.69
2022-12-11T01:28:39.858Z,68.55
2022-12-11T01:31:24.623Z,68.64
2022-12-11T01:34:09.474Z,68.88
2022-12-11T01:36:54.205Z,68.15
2022-12-11T01:39:38.800Z,67.04
2022-12-11T01:42:23.483Z,67.52
2022-12-11T01:45:08.434Z,67.12
2022-12-11T01:47:53.394Z,67.57
2022-12-11T01:50:38.146Z,67.50
2022-12-11T01:53:22.914Z,67.50
2022-12-11T01:56:07.616Z,66.96
2022-12-11T01:58:52.340Z,66.80
2022-12-11T02:01:37.185Z,66.66
2022-12-11T02:04:22.382Z,66.53
2022-12-11T02:07:07.021Z,66.37
2022-12-11T02:09:51.887Z,66.03
2022-12-11T02:12:36.577Z,65.60
2022-12-11T02:15:21.296Z,65.62
2022-12-11T02:18:05.930Z,66.16
2022-12-11T02:20:50.743Z,65.61
2022-12-11T02:23:35.511Z,65.79
2022-12-11T02:26:20.461Z,64.97
2022-12-11T02:29:05.251Z,65.71
2022-12-11T02:31:50.176Z,67.08
2022-12-11T02:34:34.970Z,67.27
2022-12-11T02:37:19.627Z,67.17
2022-12-11T02:40:04.574Z,67.01
2022-12-11T02:42:49.379Z,66.13
2022-12-11T02:45:34.294Z,65.10
2022-12-11T02:48:19.000Z,65.58
2022-12-11T02:51:03.750Z,66.90
2022-12-11T02:53:48.488Z,67.32
2022-12-11T02:56:33.312Z,66.89
2022-12-11T02:59:18.153Z,66.93
2022-12-11T03:02:02.954Z,67.32
2022-12-11T03:04:47.657Z,67.64
2022-12-11T03:07:32.377Z,67.97
2022-12-11T03:10:17.359Z,67.78
2022-12-11T03:13:01.977Z,67.07
2022-12-11T03:15:46.924Z,66.54
2022-12-11T03:18:31.571Z,67.27
2022-12-11T03:21:16.307Z,67.27
2022-12-11T03:24:00.939Z,67.59
2022-12-11T03:26:45.612Z,67.46
2022-12-11T03:29:30.350Z,68.25
2022-12-11T03:32:15.081Z,69.26
2022-12-11T03:34:59.941Z,69.82
2022-12-11T03:37:44.627Z,69.30
2022-12-11T03:40:29.528Z,69.38
2022-12-11T03:43:14.155Z,69.65
2022-12-11T03:45:58.960Z,69.38
2022-12-11T03:48:43.599Z,69.39
2022-12-11T03:51:28.290Z,68.93
2022-12-11T03:54:13.035Z,68.62
2022-12-11T03:56:57.855Z,68.74
2022-12-11T03:59:42.538Z,68.80
2022-12-11T04:02:27.395Z,68.19
2022-12-11T04:05:12.646Z,68.09
2022-12-11T04:07:57.773Z,67.78
2022-12-11T04:10:42.528Z,67.52
2022-12-11T04:13:27.272Z,67.90
2022-12-11T04:16:12.239Z,68.44
2022-12-11T04:18:56.953Z,67.93
2022-12-11T04:21:41.936Z,67.57
2022-12-11T04:24:26.482Z,67.64
2022-12-11T04:27:11.426Z,67.50
2022-12-11T04:29:56.150Z,68.15
2022-12-11T04:32:40.917Z,68.37
2022-12-11T04:35:25.694Z,67.96
2022-12-11T04:38:10.425Z,67.17
2022-12-11T04:40:55.241Z,65.65
2022-12-11T04:43:39.906Z,65.31
2022-12-11T04:46:24.771Z,64.10
2022-12-11T04:49:09.486Z,64.46
2022-12-11T04:51:54.190Z,62.95
2022-12-11T04:54:38.819Z,63.25
2022-12-11T04:57:23.554Z,62.06
2022-12-11T05:00:08.418Z,61.37
2022-12-11T05:02:53.174Z,60.55
2022-12-11T05:05:37.948Z,60.95
2022-12-11T05:08:22.785Z,61.41
2022-12-11T05:11:07.509Z,61.53
2022-12-11T05:13:52.269Z,60.06
2022-12-11T05:16:37.119Z,59.92
2022-12-11T05:19:21.864Z,61.29
2022-12-11T05:22:06.548Z,59.94
2022-12-11T05:24:51.231Z,58.58
2022-12-11T05:27:36.115Z,57.76
2022-12-11T05:30:20.940Z,57.48
2022-12-11T05:33:05.746Z,57.76
2022-12-11T05:35:50.660Z,59.23
2022-12-11T05:38:35.370Z,59.70
2022-12-11T05:41:20.215Z,58.09
2022-12-11T05:44:04.839Z,57.49
2022-12-11T05:46:49.731Z,56.49
2022-12-11T05:49:34.435Z,57.04
2022-12-11T05:52:19.177Z,57.26
2022-12-11T05:55:03.850Z,57.22
2022-12-11T05:57:48.717Z,57.21
2022-12-11T06:00:36.137Z,57.61
2022-12-11T06:03:21.209Z,57.53
2022-12-11T06:06:05.957Z,57.52
2022-12-11T06:08:50.775Z,58.03
2022-12-11T06:11:35.519Z,57.41
2022-12-11T06:14:20.179Z,56.50
2022-12-11T06:17:04.973Z,57.40
2022-12-11T06:19:49.807Z,57.40
2022-12-11T06:22:34.585Z,57.52
2022-12-11T06:25:19.394Z,56.51
2022-12-11T06:28:04.103Z,57.14
2022-12-11T06:30:48.951Z,57.08
2022-12-11T06:33:33.711Z,57.17
2022-12-11T06:36:18.574Z,57.58
2022-12-11T06:39:03.669Z,56.95
2022-12-11T06:41:48.484Z,56.73
2022-12-11T06:44:33.370Z,56.24
2022-12-11T06:47:18.350Z,56.51
2022-12-11T06:50:03.250Z,57.45
2022-12-11T06:52:47.957Z,56.41
2022-12-11T06:55:32.834Z,57.57
2022-12-11T06:58:17.518Z,58.40
2022-12-11T07:01:02.527Z,58.25
2022-12-11T07:03:47.260Z,57.65
2022-12-11T07:06:32.048Z,57.66
2022-12-11T07:09:16.773Z,58.04
2022-12-11T07:12:01.535Z,57.24
2022-12-11T07:14:46.394Z,57.22
2022-12-11T07:17:31.274Z,57.38
2022-12-11T07:20:16.030Z,57.51
2022-12-11T07:23:00.837Z,57.32
2022-12-11T07:25:45.727Z,57.06
2022-12-11T07:28:30.415Z,57.26
2022-12-11T07:31:15.390Z,57.13
2022-12-11T07:34:00.591Z,56.27
2022-12-11T07:36:45.727Z,56.53
2022-12-11T07:39:30.490Z,56.26
2022-12-11T07:42:15.154Z,56.33
2022-12-11T07:44:59.874Z,56.87
2022-12-11T07:47:44.539Z,56.47
2022-12-11T07:50:29.375Z,56.60
2022-12-11T07:53:14.090Z,56.55
2022-12-11T07:55:58.808Z,56.48
2022-12-11T07:58:43.447Z,56.62
2022-12-11T08:01:28.122Z,56.92
2022-12-11T08:04:13.304Z,57.30
2022-12-11T08:06:58.062Z,57.11
2022-12-11T08:09:42.750Z,56.74
2022-12-11T08:12:27.631Z,56.27
2022-12-11T08:15:12.673Z,55.75
2022-12-11T08:17:57.766Z,56.04
2022-12-11T08:20:42.520Z,54.38
2022-12-11T08:23:27.131Z,54.60
2022-12-11T08:26:11.838Z,54.05
2022-12-11T08:28:56.489Z,53.71
2022-12-11T08:31:41.406Z,52.49
2022-12-11T08:34:26.114Z,53.50
2022-12-11T08:37:10.924Z,53.77
2022-12-11T08:39:55.570Z,52.42
2022-12-11T08:42:40.367Z,52.16
2022-12-11T08:45:25.052Z,51.70
2022-12-11T08:48:09.822Z,51.42
2022-12-11T08:50:54.671Z,49.37
2022-12-11T08:53:39.390Z,49.76
2022-12-11T08:56:24.211Z,50.93
2022-12-11T08:59:08.969Z,50.95
2022-12-11T09:01:53.726Z,51.29
2022-12-11T09:04:38.358Z,50.00
2022-12-11T09:07:23.225Z,47.95
2022-12-11T09:10:07.874Z,48.82
2022-12-11T09:12:52.531Z,47.48
2022-12-11T09:15:37.229Z,48.33
2022-12-11T09:18:22.061Z,49.98
2022-12-11T09:21:06.857Z,48.84
2022-12-11T09:23:51.607Z,48.31
2022-12-11T09:26:36.406Z,48.45
2022-12-11T09:29:21.084Z,52.22
2022-12-11T09:32:05.959Z,53.84
2022-12-11T09:34:50.590Z,54.71
2022-12-11T09:37:35.342Z,55.51
2022-12-11T09:40:19.993Z,53.94
2022-12-11T09:43:04.709Z,55.79
2022-12-11T09:45:49.412Z,53.01
2022-12-11T09:48:34.136Z,52.25
2022-12-11T09:51:19.062Z,51.64
2022-12-11T09:54:03.702Z,53.76
2022-12-11T09:56:48.531Z,50.30
2022-12-11T09:59:33.326Z,49.27
2022-12-11T10:02:18.176Z,51.61
2022-12-11T10:05:02.927Z,51.74
2022-12-11T10:07:47.722Z,49.38
2022-12-11T10:10:32.376Z,50.94
2022-12-11T10:13:17.134Z,51.64
2022-12-11T10:16:02.012Z,51.48
2022-12-11T10:18:46.800Z,51.88
2022-12-11T10:21:31.957Z,52.20
2022-12-11T10:24:34.673Z,52.10
2022-12-11T10:27:21.999Z,51.16
2022-12-11T10:30:06.806Z,50.86
2022-12-11T10:32:51.762Z,51.09
2022-12-11T10:35:36.600Z,49.59
2022-12-11T10:38:21.370Z,49.40
2022-12-11T10:41:06.114Z,50.90
2022-12-11T10:43:50.886Z,49.91
2022-12-11T10:46:35.687Z,47.81
2022-12-11T10:49:20.507Z,48.90
2022-12-11T10:52:05.198Z,48.71
2022-12-11T10:54:50.127Z,47.64
2022-12-11T10:57:34.944Z,44.43
2022-12-11T11:00:19.758Z,48.23
2022-12-11T11:03:04.383Z,47.32
2022-12-11T11:05:49.666Z,47.64
2022-12-11T11:08:34.883Z,46.62
2022-12-11T11:11:19.781Z,47.68
2022-12-11T11:14:04.450Z,45.39
2022-12-11T11:16:49.144Z,47.20
2022-12-11T11:19:33.889Z,47.43
2022-12-11T11:22:18.577Z,48.53
2022-12-11T11:25:03.345Z,47.65
2022-12-11T11:27:48.187Z,50.12
2022-12-11T11:30:33.000Z,48.94
2022-12-11T11:33:17.718Z,49.84
2022-12-11T11:36:02.643Z,49.17
2022-12-11T11:38:47.414Z,48.26
2022-12-11T11:41:32.276Z,46.59
2022-12-11T11:44:17.065Z,48.69
2022-12-11T11:47:01.862Z,47.80
2022-12-11T11:49:46.587Z,48.01
2022-12-11T11:52:31.524Z,47.97
2022-12-11T11:55:21.576Z,47.42
2022-12-11T11:58:07.069Z,48.93
2022-12-11T12:00:51.848Z,49.31
2022-12-11T12:03:36.723Z,48.65
2022-12-11T12:06:21.443Z,48.36
2022-12-11T12:09:06.287Z,50.56
2022-12-11T12:11:50.912Z,50.96
2022-12-11T12:14:52.574Z,51.99
2022-12-11T12:17:37.608Z,53.22
2022-12-11T12:20:22.479Z,54.42
2022-12-11T12:23:07.337Z,54.54
2022-12-11T12:25:52.010Z,56.17
2022-12-11T12:28:36.610Z,54.16
2022-12-11T12:31:21.452Z,55.13
2022-12-11T12:34:06.379Z,55.95
2022-12-11T12:36:51.166Z,57.11
2022-12-11T12:39:35.955Z,55.93
2022-12-11T12:42:20.660Z,54.43
2022-12-11T12:45:05.626Z,54.10
2022-12-11T12:47:53.336Z,54.36
2022-12-11T12:50:38.475Z,53.43
2022-12-11T12:53:23.370Z,52.09
2022-12-11T12:56:08.088Z,51.19
2022-12-11T12:58:52.927Z,49.74
2022-12-11T13:01:37.650Z,49.75
2022-12-11T13:04:53.956Z,50.22
2022-12-11T13:07:27.433Z,49.73
2022-12-11T13:10:12.198Z,47.58
2022-12-11T13:12:57.118Z,49.59
2022-12-11T13:15:41.911Z,51.74
2022-12-11T13:18:26.764Z,52.94
2022-12-11T13:21:11.724Z,51.93
2022-12-11T13:23:56.488Z,54.07
2022-12-11T13:26:41.228Z,53.81
2022-12-11T13:29:25.898Z,54.28
2022-12-11T13:32:10.652Z,53.36
2022-12-11T13:34:55.295Z,52.70
2022-12-11T13:37:40.115Z,49.02
2022-12-11T13:40:24.771Z,49.41
2022-12-11T13:43:09.512Z,47.22
2022-12-11T13:45:54.225Z,47.97
2022-12-11T13:48:38.878Z,49.03
2022-12-11T13:51:23.648Z,50.12
2022-12-11T13:54:10.639Z,49.44
2022-12-11T13:56:58.882Z,47.28
2022-12-11T13:59:43.695Z,47.47
2022-12-11T14:02:28.551Z,49.20
2022-12-11T14:05:13.604Z,49.37
2022-12-11T14:07:58.687Z,51.72
2022-12-11T14:10:43.495Z,51.99
2022-12-11T14:13:28.323Z,51.46
2022-12-11T14:16:13.100Z,50.75
2022-12-11T14:18:57.728Z,51.50
2022-12-11T14:21:42.336Z,51.79
2022-12-11T14:24:27.240Z,49.77
2022-12-11T14:27:11.884Z,47.39
2022-12-11T14:29:56.625Z,50.05
2022-12-11T14:32:41.275Z,49.50
2022-12-11T14:35:26.015Z,49.61
2022-12-11T14:38:10.767Z,49.26
2022-12-11T14:40:55.568Z,49.67
2022-12-11T14:43:40.296Z,49.58
2022-12-11T14:46:25.171Z,49.40
2022-12-11T14:49:09.774Z,49.31
2022-12-11T14:51:54.631Z,49.11
2022-12-11T14:54:39.262Z,49.52
2022-12-11T14:57:24.027Z,49.70
2022-12-11T15:00:08.932Z,49.25
2022-12-11T15:02:54.156Z,49.06
2022-12-11T15:05:40.975Z,50.01
2022-12-11T15:08:26.302Z,49.58
2022-12-11T15:11:10.955Z,48.85
2022-12-11T15:13:55.715Z,48.60
2022-12-11T15:16:40.962Z,48.73
2022-12-11T15:19:25.692Z,48.92
2022-12-11T15:22:10.487Z,48.70
2022-12-11T15:24:55.405Z,48.36
2022-12-11T15:27:40.191Z,48.52
2022-12-11T15:30:24.940Z,48.23
2022-12-11T15:33:09.618Z,48.42
2022-12-11T15:35:54.270Z,47.71
2022-12-11T15:38:38.926Z,48.22
2022-12-11T15:41:23.716Z,48.98
2022-12-11T15:44:08.446Z,48.41
2022-12-11T15:46:53.240Z,48.89
2022-12-11T15:49:38.095Z,49.43
2022-12-11T15:52:23.040Z,49.98
2022-12-11T15:55:07.876Z,49.04
2022-12-11T15:57:52.656Z,49.08
2022-12-11T16:00:37.358Z,49.04
2022-12-11T16:03:21.980Z,48.54
2022-12-11T16:06:06.864Z,48.00
2022-12-11T16:08:51.630Z,47.27
2022-12-11T16:11:36.363Z,47.27
2022-12-11T16:14:21.080Z,46.41
2022-12-11T16:17:05.985Z,46.58
2022-12-11T16:19:50.561Z,46.63
2022-12-11T16:22:35.318Z,46.65
2022-12-11T16:25:20.122Z,48.21
2022-12-11T16:28:04.866Z,49.34
2022-12-11T16:30:49.827Z,50.02
2022-12-11T16:33:34.603Z,49.29
2022-12-11T16:36:19.492Z,48.88
2022-12-11T16:39:04.159Z,49.04
2022-12-11T16:41:48.911Z,49.63
2022-12-11T16:44:33.604Z,49.39
2022-12-11T16:47:18.456Z,49.74
2022-12-11T16:50:03.235Z,50.15
2022-12-11T16:52:48.118Z,50.28
2022-12-11T16:55:32.963Z,50.25
2022-12-11T16:58:17.874Z,50.12
2022-12-11T17:01:02.763Z,50.27
2022-12-11T17:03:47.362Z,50.04
2022-12-11T17:06:33.343Z,49.67
2022-12-11T17:09:18.141Z,49.78
2022-12-11T17:12:02.912Z,50.15
2022-12-11T17:14:47.751Z,49.94
2022-12-11T17:17:32.501Z,49.65
2022-12-11T17:20:17.332Z,49.83
2022-12-11T17:23:02.228Z,49.96
2022-12-11T17:25:47.108Z,50.47
2022-12-11T17:28:31.772Z,50.30
2022-12-11T17:31:16.704Z,50.55
2022-12-11T17:34:01.362Z,50.84
2022-12-11T17:36:46.376Z,51.57
2022-12-11T17:39:31.003Z,51.52
2022-12-11T17:42:15.757Z,51.89
2022-12-11T17:45:00.416Z,51.80
2022-12-11T17:47:45.194Z,51.80
2022-12-11T17:50:29.940Z,51.64
2022-12-11T17:53:14.614Z,51.50
2022-12-11T17:55:59.507Z,51.40
2022-12-11T17:58:44.168Z,51.77
2022-12-11T18:01:28.931Z,51.55
2022-12-11T18:04:13.628Z,51.42
2022-12-11T18:06:58.854Z,51.08
2022-12-11T18:09:43.529Z,51.59
2022-12-11T18:12:28.316Z,51.86
2022-12-11T18:15:13.316Z,51.99
2022-12-11T18:17:58.489Z,52.43
2022-12-11T18:20:43.405Z,52.34
2022-12-11T18:23:28.196Z,52.31
2022-12-11T18:26:12.999Z,52.31
2022-12-11T18:28:57.774Z,52.01
2022-12-11T18:31:43.096Z,52.15
2022-12-11T18:34:27.818Z,52.05
2022-12-11T18:37:12.571Z,52.02
2022-12-11T18:39:57.399Z,51.62
2022-12-11T18:42:42.117Z,51.49
2022-12-11T18:45:26.872Z,51.40
2022-12-11T18:48:11.536Z,51.16
2022-12-11T18:50:56.213Z,51.25
2022-12-11T18:53:40.932Z,50.83
2022-12-11T18:56:25.685Z,50.96
2022-12-11T18:59:10.354Z,50.86
2022-12-11T19:01:55.117Z,50.00
2022-12-11T19:04:39.810Z,49.81
2022-12-11T19:07:24.564Z,49.63
2022-12-11T19:10:09.319Z,49.29
2022-12-11T19:12:54.024Z,49.25
2022-12-11T19:15:38.758Z,49.40
2022-12-11T19:18:23.515Z,48.65
2022-12-11T19:21:09.226Z,49.01
2022-12-11T19:23:54.098Z,49.47
2022-12-11T19:26:38.896Z,49.18
2022-12-11T19:29:23.613Z,49.58
2022-12-11T19:32:08.255Z,49.49
2022-12-11T19:34:52.871Z,49.71
2022-12-11T19:37:37.704Z,49.91
2022-12-11T19:40:22.371Z,49.87
2022-12-11T19:43:07.163Z,49.90
2022-12-11T19:45:51.898Z,50.61
2022-12-11T19:48:36.767Z,51.08
2022-12-11T19:51:21.614Z,51.16
2022-12-11T19:54:06.310Z,50.93
2022-12-11T19:56:51.058Z,51.14
2022-12-11T19:59:35.694Z,51.47
2022-12-11T20:02:20.527Z,51.85
2022-12-11T20:05:05.195Z,52.47
2022-12-11T20:07:50.054Z,52.72
2022-12-11T20:10:35.292Z,52.86
2022-12-11T20:13:20.114Z,53.09
2022-12-11T20:16:05.194Z,53.05
2022-12-11T20:18:49.922Z,53.62
2022-12-11T20:21:34.688Z,53.77
2022-12-11T20:24:19.410Z,53.93
2022-12-11T20:27:04.114Z,54.25
2022-12-11T20:29:48.833Z,54.09
2022-12-11T20:32:33.550Z,53.76
2022-12-11T20:35:18.071Z,53.94
2022-12-11T20:38:02.866Z,54.14
2022-12-11T20:40:47.741Z,53.46
2022-12-11T20:43:32.612Z,53.46
2022-12-11T20:46:17.465Z,53.62
2022-12-11T20:49:02.100Z,53.74
2022-12-11T20:51:46.845Z,54.12
2022-12-11T20:54:31.500Z,54.35
2022-12-11T20:57:16.255Z,54.56
2022-12-11T21:00:00.993Z,54.44
2022-12-11T21:02:45.768Z,54.80
2022-12-11T21:05:30.495Z,55.17
2022-12-11T21:08:15.405Z,55.04
2022-12-11T21:11:00.108Z,55.86
2022-12-11T21:13:44.627Z,55.31
2022-12-11T21:16:29.488Z,55.00
2022-12-11T21:19:16.821Z,54.46
2022-12-11T21:22:02.178Z,54.15
2022-12-11T21:24:46.866Z,53.65
2022-12-11T21:27:31.844Z,53.06
2022-12-11T21:30:16.582Z,52.85
2022-12-11T21:33:01.467Z,52.98
2022-12-11T21:35:46.210Z,52.83
2022-12-11T21:38:30.859Z,53.25
2022-12-11T21:41:15.620Z,53.73
2022-12-11T21:47:05.096Z,54.13
2022-12-11T21:49:49.819Z,54.06
2022-12-11T21:52:34.586Z,53.67
2022-12-11T21:55:19.473Z,53.67
2022-12-11T21:58:04.196Z,53.11
2022-12-11T22:00:48.927Z,53.53
2022-12-11T22:03:33.590Z,54.01
2022-12-11T22:06:18.468Z,54.88
2022-12-11T22:09:03.247Z,54.92
2022-12-11T22:11:47.955Z,55.33
2022-12-11T22:14:32.711Z,54.90
2022-12-11T22:17:17.611Z,55.32
2022-12-11T22:20:02.404Z,55.20
2022-12-11T22:22:47.178Z,55.23
2022-12-11T22:25:31.947Z,55.34
2022-12-11T22:28:16.660Z,55.03
2022-12-11T22:31:01.450Z,55.04
2022-12-11T22:33:46.056Z,55.06
2022-12-11T22:36:30.741Z,54.80
2022-12-11T22:39:15.361Z,54.06
2022-12-11T22:42:00.210Z,54.14
2022-12-11T22:44:45.039Z,54.06
2022-12-11T22:47:29.798Z,54.21
2022-12-11T22:50:14.647Z,54.66
2022-12-11T22:52:59.318Z,54.20
2022-12-11T22:55:44.180Z,53.71
2022-12-11T22:58:28.834Z,53.79
2022-12-11T23:01:13.756Z,54.31
2022-12-11T23:03:58.485Z,54.69
2022-12-11T23:06:43.336Z,55.11
2022-12-11T23:09:27.988Z,55.38
2022-12-11T23:12:12.714Z,55.55
2022-12-11T23:14:57.444Z,55.69
2022-12-11T23:17:42.077Z,55.74
2022-12-11T23:20:26.962Z,55.93
2022-12-11T23:23:11.688Z,55.81
2022-12-11T23:25:56.475Z,55.58
2022-12-11T23:28:41.191Z,55.58
2022-12-11T23:31:25.913Z,55.25
2022-12-11T23:34:11.169Z,55.19
2022-12-11T23:36:55.987Z,55.15
2022-12-11T23:39:40.701Z,54.96
2022-12-11T23:42:25.479Z,54.98
2022-12-11T23:45:10.578Z,55.20
2022-12-11T23:47:55.475Z,55.19
2022-12-11T23:50:40.215Z,55.11
2022-12-11T23:53:25.010Z,55.52
2022-12-11T23:56:09.856Z,55.63
2022-12-11T23:58:54.573Z,55.39
